Isabel, Kansas
Current Conditions -  °F | °C
As of 3:15 PM on Sunday 23 Nov 2014 (Local Time) from KPTT Reporting Station
Overcast Overcast  
Wind Chill: 31°   Ceiling: 7500
Heat Index: 41°   Visibility: 10mi
Dew Point: 36°   Wind: 23mph
Humidity: 81%   Direction: 360°N
Pressure: 29.55"   Gusts: 29mph
Location:  37.47°N, 98.55°W
Report Text: KPTT 232115Z AUTO 36020G25KT 10SM SCT065 OVC075 05/02 A2955 RMK AO2
Loading
Personal Weather Stations






























Interactive Weather Map New forecast layout! Learn more

10-Day Weather Forecast

Advertisements
Track Severe Weather on mobile